ポートオブスペイン の空港の天気 - METARとTAF

ピアルコ国際空港(ポートオブスペイン) ( TTPP / POS ) - トリニダード・トバゴ ポートオブスペイン (トリニダード島)
飛行場実況気象(Metar)
観測時間12/10 01:00 AST (12/10 05:00 UTC)
風向・風速静穏 0m/s
視程10km以上
天気現象
少しの雲 雲底高度 490m
気温23℃
湿度89%
気圧1015hPa
METARTTPP 100500Z 00000KT 9999 FEW016 23/21 Q1015 NOSIG
過去の天気等 Google飛行場航空写真 Wunderground天気予報

過去48時間のMETAR

飛行場予報(TAF)
発表時間: 12/10 00:00 AST (12/10 04:00 UTC)
予報対象時間: 10日2時 AST ~ 11日2時 AST
風向・風速不定 3m/s
視程10km以上
少しの雲 雲底高度 490m
10日6時 AST ~ 10日10時 AST に 確率 30% で一時的に
視程6000m
天気現象しゅう雨
全天の4割程度の雲 雲底高度 460m
全天の4割程度の雲 雲底高度 1100m
10日6時 AST ~ 10日8時 AST に徐々に
風向・風速東 8m/s
少しの雲 雲底高度 610m
10日20時 AST ~ 10日22時 AST に徐々に
風向・風速東 3m/s
少しの雲 雲底高度 490m
TAF TTPP 100400Z 1006/1106 VRB05KT 9999 FEW016
PROB30 TEMPO 1010/1014 6000 SHRA SCT015 SCT036
BECMG 1010/1012 09015KT FEW020
BECMG 1100/1102 09005KT FEW016